Time;durP1;ratioP1;P1;durP2;ratioP2;P2;SDS_P1;SDS_P2;PMS_P1;PMS_P2;Temp;Humidity;BMP_temperature;BMP_pressure;BME280_temperature;BME280_humidity;BME280_pressure;Samples;Min_cycle;Max_cycle;Signal;HPM_P1;HPM_P2
2021/03/16 00:03:04;;;;;;;16.40;3.43;;;;;5.90;101852.00;;;;10374521;28;20203;-77
2021/03/16 00:08:12;;;;;;;14.77;3.97;;;;;5.90;101860.00;;;;10341788;28;20200;-76
2021/03/16 00:13:14;;;;;;;13.77;2.67;;;;;5.80;101849.00;;;;10340367;28;20237;-76
2021/03/16 00:18:16;;;;;;;19.30;3.37;;;;;5.80;101852.00;;;;10372806;28;20196;-76
2021/03/16 00:23:19;;;;;;;14.57;3.40;;;;;5.80;101863.00;;;;10339723;28;20200;-77
2021/03/16 00:28:21;;;;;;;14.47;2.77;;;;;5.80;101863.00;;;;10340078;28;20294;-76
2021/03/16 00:33:22;;;;;;;21.73;4.00;;;;;5.80;101860.00;;;;10344735;28;20283;-76
2021/03/16 00:38:24;;;;;;;27.77;4.30;;;;;5.80;101861.00;;;;10299505;28;20555;-76
2021/03/16 00:43:25;;;;;;;16.37;3.20;;;;;5.80;101873.00;;;;10316355;28;20214;-76
2021/03/16 00:48:27;;;;;;;20.60;3.40;;;;;5.80;101873.00;;;;10322286;28;20199;-76
2021/03/16 00:53:31;;;;;;;16.77;3.93;;;;;5.80;101876.00;;;;10356844;28;20524;-76
2021/03/16 00:58:38;;;;;;;19.43;4.57;;;;;5.80;101864.00;;;;10339311;28;20685;-76
2021/03/16 01:03:40;;;;;;;18.63;3.53;;;;;5.80;101865.00;;;;10339613;28;20184;-76
2021/03/16 01:08:42;;;;;;;21.07;4.13;;;;;5.90;101885.00;;;;10339495;28;20279;-76
2021/03/16 01:13:43;;;;;;;26.77;4.33;;;;;5.80;101883.00;;;;10329583;28;20285;-77
2021/03/16 01:18:44;;;;;;;18.97;2.63;;;;;5.80;101884.00;;;;10301578;28;20215;-76
2021/03/16 01:23:46;;;;;;;18.00;2.97;;;;;5.80;101886.00;;;;10298981;28;20192;-76
2021/03/16 01:28:48;;;;;;;20.73;3.67;;;;;5.70;101876.00;;;;10314498;28;20663;-76
2021/03/16 01:33:49;;;;;;;17.37;3.57;;;;;5.70;101869.00;;;;10298008;28;20795;-76
2021/03/16 01:38:51;;;;;;;8.60;2.40;;;;;5.70;101875.00;;;;10311424;28;20214;-76
2021/03/16 01:43:52;;;;;;;11.80;3.50;;;;;5.70;101876.00;;;;10345849;28;20196;-76
2021/03/16 01:48:54;;;;;;;15.30;3.53;;;;;5.70;101881.00;;;;10312238;28;20282;-76
2021/03/16 01:53:55;;;;;;;17.77;2.30;;;;;5.70;101885.00;;;;10330324;28;20223;-76
2021/03/16 01:59:01;;;;;;;14.17;2.93;;;;;5.80;101876.00;;;;10356715;28;20199;-76
2021/03/16 02:04:22;;;;;;;10.73;2.33;;;;;5.80;101883.00;;;;10313852;28;20208;-76
2021/03/16 02:09:54;;;;;;;14.83;2.63;;;;;5.80;101893.00;;;;10324217;28;20547;-76
2021/03/16 02:15:17;;;;;;;16.37;2.50;;;;;5.80;101887.00;;;;10353810;28;20255;-77
2021/03/16 02:21:05;;;;;;;11.77;2.13;;;;;5.80;101886.00;;;;10347397;28;20211;-76
2021/03/16 02:26:49;;;;;;;11.53;2.83;;;;;5.80;101880.00;;;;10379058;28;20535;-76
2021/03/16 02:32:13;;;;;;;12.80;3.17;;;;;5.80;101892.00;;;;10347136;28;20196;-76
2021/03/16 02:37:36;;;;;;;11.80;2.77;;;;;5.80;101892.00;;;;10362994;28;20195;-77
2021/03/16 02:42:57;;;;;;;10.63;1.93;;;;;5.80;101884.00;;;;10361175;28;20535;-76
2021/03/16 02:48:19;;;;;;;12.17;2.27;;;;;5.80;101888.00;;;;10362514;28;20195;-76
2021/03/16 02:53:40;;;;;;;12.57;2.13;;;;;5.70;101900.00;;;;10346990;28;20213;-77
2021/03/16 02:59:08;;;;;;;15.13;1.97;;;;;5.60;101897.00;;;;10362489;28;20235;-76
2021/03/16 03:04:29;;;;;;;13.90;2.03;;;;;5.60;101886.00;;;;10370800;28;20211;-76
2021/03/16 03:09:49;;;;;;;9.10;2.47;;;;;5.60;101890.00;;;;10377299;28;20188;-77
2021/03/16 03:15:09;;;;;;;8.93;2.03;;;;;5.60;101901.00;;;;10350131;28;20301;-77
2021/03/16 03:20:33;;;;;;;9.77;1.57;;;;;5.40;101912.00;;;;10320960;28;20671;-76
2021/03/16 03:25:58;;;;;;;7.83;1.90;;;;;5.30;101917.00;;;;10326992;28;20191;-76
2021/03/16 03:31:18;;;;;;;5.10;1.60;;;;;5.30;101901.00;;;;10354106;28;20246;-76
2021/03/16 03:36:41;;;;;;;10.63;2.00;;;;;5.50;101909.00;;;;10334529;28;20207;-76
2021/03/16 03:42:02;;;;;;;6.87;2.73;;;;;5.60;101914.00;;;;10320243;28;20216;-77
2021/03/16 03:47:23;;;;;;;9.40;2.47;;;;;5.60;101926.00;;;;10338826;28;20195;-77
2021/03/16 03:52:44;;;;;;;17.17;2.07;;;;;5.60;101931.00;;;;10361096;28;20191;-77
2021/03/16 03:58:05;;;;;;;7.13;1.70;;;;;5.60;101919.00;;;;10334717;28;20219;-77
2021/03/16 04:03:25;;;;;;;14.20;1.80;;;;;5.60;101913.00;;;;10302986;28;20354;-77
2021/03/16 04:08:45;;;;;;;9.80;1.93;;;;;5.60;101913.00;;;;10331160;28;20748;-76
2021/03/16 04:14:06;;;;;;;13.80;1.90;;;;;5.60;101924.00;;;;10354803;28;20219;-76
2021/03/16 04:19:26;;;;;;;11.60;2.30;;;;;5.60;101915.00;;;;10332017;28;20207;-77
2021/03/16 04:24:46;;;;;;;10.53;2.00;;;;;5.60;101929.00;;;;10351687;28;20646;-76
2021/03/16 04:30:08;;;;;;;17.60;3.40;;;;;5.60;101919.00;;;;10319182;28;20289;-77
2021/03/16 04:35:27;;;;;;;17.13;3.17;;;;;5.70;101927.00;;;;10315882;28;20207;-77
2021/03/16 04:40:47;;;;;;;14.23;3.10;;;;;5.60;101934.00;;;;10342251;28;20235;-76
2021/03/16 04:46:09;;;;;;;13.77;3.03;;;;;5.70;101936.00;;;;10331724;28;20203;-76
2021/03/16 04:51:33;;;;;;;16.87;3.30;;;;;5.70;101935.00;;;;10302448;28;20192;-76
2021/03/16 04:56:54;;;;;;;15.37;4.70;;;;;5.70;101942.00;;;;10318311;28;20215;-77
2021/03/16 05:02:16;;;;;;;17.10;3.53;;;;;5.70;101949.00;;;;10318257;28;20215;-77
2021/03/16 05:07:36;;;;;;;14.93;4.60;;;;;5.70;101959.00;;;;10332244;28;20227;-76
2021/03/16 05:12:56;;;;;;;15.43;4.00;;;;;5.70;101959.00;;;;10336758;28;20238;-76
2021/03/16 05:18:16;;;;;;;15.17;4.03;;;;;5.60;101965.00;;;;10341673;28;20211;-76
2021/03/16 05:23:36;;;;;;;18.27;4.17;;;;;5.60;101966.00;;;;10301938;28;20224;-77
2021/03/16 05:28:56;;;;;;;14.63;3.77;;;;;5.60;101959.00;;;;10314554;28;20602;-76
2021/03/16 05:34:20;;;;;;;17.20;5.07;;;;;5.50;101961.00;;;;10340455;28;20528;-77
2021/03/16 05:39:40;;;;;;;14.57;4.30;;;;;5.50;101970.00;;;;10372508;28;20211;-77
2021/03/16 05:45:02;;;;;;;11.37;3.63;;;;;5.50;101971.00;;;;10358070;28;20546;-76
2021/03/16 05:50:22;;;;;;;20.63;4.10;;;;;5.50;101977.00;;;;10341077;28;20192;-77
2021/03/16 05:55:43;;;;;;;17.93;4.20;;;;;5.50;101984.00;;;;10324023;28;20196;-77
2021/03/16 06:01:04;;;;;;;11.17;3.80;;;;;5.50;101990.00;;;;10297760;28;20212;-76
2021/03/16 06:06:24;;;;;;;10.40;3.77;;;;;5.40;101992.00;;;;10316659;28;20196;-77
2021/03/16 06:11:50;;;;;;;14.33;4.17;;;;;5.40;101996.00;;;;10331867;28;20853;-77
2021/03/16 06:17:15;;;;;;;19.50;4.43;;;;;5.50;101993.00;;;;10316401;28;20192;-77
2021/03/16 06:22:35;;;;;;;17.43;4.60;;;;;5.50;101996.00;;;;10301952;28;20216;-77
2021/03/16 06:28:02;;;;;;;29.27;5.60;;;;;5.60;102002.00;;;;10306989;28;20200;-77
2021/03/16 06:33:24;;;;;;;23.30;4.03;;;;;5.60;101992.00;;;;10324166;28;20189;-76
2021/03/16 06:38:44;;;;;;;14.87;4.23;;;;;5.70;102002.00;;;;10334312;28;20201;-76
2021/03/16 06:44:04;;;;;;;11.27;4.10;;;;;5.80;102008.00;;;;10363540;28;20266;-76
2021/03/16 06:49:25;;;;;;;14.17;4.93;;;;;5.90;102002.00;;;;10347297;28;20191;-77
2021/03/16 06:54:46;;;;;;;17.37;4.57;;;;;6.00;101999.00;;;;10363222;28;20203;-77
2021/03/16 07:00:09;;;;;;;23.90;6.13;;;;;6.10;102012.00;;;;10344167;28;20222;-76
2021/03/16 07:05:29;;;;;;;17.40;5.50;;;;;6.20;102007.00;;;;10362995;28;20196;-76
2021/03/16 07:10:49;;;;;;;15.23;4.80;;;;;6.30;102005.00;;;;10376459;28;20282;-77
2021/03/16 07:16:11;;;;;;;15.17;4.70;;;;;6.40;102008.00;;;;10361798;28;20329;-76
2021/03/16 07:21:38;;;;;;;12.53;4.20;;;;;6.40;102018.00;;;;10376486;28;20289;-77
2021/03/16 07:27:00;;;;;;;14.17;4.43;;;;;6.30;102019.00;;;;10376818;28;20642;-77
2021/03/16 07:32:21;;;;;;;13.57;4.40;;;;;6.30;102032.00;;;;10345339;28;20198;-76
2021/03/16 07:37:42;;;;;;;16.00;4.77;;;;;6.30;102032.00;;;;10345521;28;20195;-76
2021/03/16 07:43:02;;;;;;;18.40;5.77;;;;;6.30;102043.00;;;;10360902;28;20793;-77
2021/03/16 07:48:22;;;;;;;21.03;5.33;;;;;6.50;102047.00;;;;10357794;28;20191;-77
2021/03/16 07:53:57;;;;;;;22.00;5.50;;;;;6.80;102055.00;;;;10344638;28;20180;-77
2021/03/16 07:59:32;;;;;;;16.40;5.27;;;;;7.20;102047.00;;;;10360312;28;20276;-77
2021/03/16 08:04:52;;;;;;;16.13;5.03;;;;;7.40;102048.00;;;;10320714;28;20598;-77
2021/03/16 08:10:13;;;;;;;22.73;5.60;;;;;7.70;102047.00;;;;10351909;28;20276;-77
2021/03/16 08:15:41;;;;;;;17.60;6.50;;;;;7.60;102041.00;;;;10357633;28;20234;-77
2021/03/16 08:21:13;;;;;;;20.90;6.47;;;;;7.50;102046.00;;;;10344523;28;20199;-77
2021/03/16 08:26:33;;;;;;;15.47;5.77;;;;;7.50;102057.00;;;;10343981;28;20199;-77
2021/03/16 08:31:54;;;;;;;12.77;5.43;;;;;7.60;102060.00;;;;10357976;28;20203;-78
2021/03/16 08:37:28;;;;;;;15.40;5.50;;;;;7.50;102054.00;;;;10344542;28;20195;-77
2021/03/16 08:42:55;;;;;;;16.67;5.17;;;;;7.40;102059.00;;;;10334583;28;20200;-77
2021/03/16 08:48:24;;;;;;;18.17;5.20;;;;;7.40;102060.00;;;;10313906;28;20213;-77
2021/03/16 08:53:47;;;;;;;15.50;6.17;;;;;7.60;102050.00;;;;10323007;28;20193;-78
2021/03/16 08:59:08;;;;;;;18.50;6.23;;;;;7.90;102057.00;;;;10334912;28;20685;-77
2021/03/16 09:04:43;;;;;;;15.57;5.57;;;;;8.20;102069.00;;;;10334551;28;20204;-78
2021/03/16 09:10:19;;;;;;;10.40;3.30;;;;;8.40;102056.00;;;;10340988;28;20518;-78
2021/03/16 09:15:43;;;;;;;11.50;4.37;;;;;8.40;102066.00;;;;10329989;28;20575;-78
2021/03/16 09:21:05;;;;;;;9.97;3.83;;;;;8.20;102071.00;;;;10334948;28;20619;-77
2021/03/16 09:26:26;;;;;;;6.40;2.93;;;;;8.20;102076.00;;;;10352934;28;20183;-77
2021/03/16 09:31:46;;;;;;;4.77;1.70;;;;;7.80;102064.00;;;;10320579;28;20250;-77
2021/03/16 09:37:11;;;;;;;5.33;2.67;;;;;7.50;102076.00;;;;10328235;28;20222;-77
2021/03/16 09:42:48;;;;;;;4.47;2.40;;;;;7.40;102054.00;;;;10352086;28;20303;-77
2021/03/16 09:47:51;;;;;;;5.37;2.80;;;;;8.00;102059.00;;;;10348522;28;20194;-77
2021/03/16 09:53:02;;;;;;;5.93;2.43;;;;;8.30;102065.00;;;;10354233;28;20190;-76
2021/03/16 09:58:03;;;;;;;6.03;3.20;;;;;8.50;102052.00;;;;10312980;28;20204;-76
2021/03/16 10:03:07;;;;;;;5.17;2.70;;;;;8.60;102055.00;;;;10359490;28;20207;-76
2021/03/16 10:08:10;;;;;;;5.37;3.00;;;;;8.40;102057.00;;;;10355493;28;20239;-76
2021/03/16 10:13:12;;;;;;;7.37;3.30;;;;;7.60;102050.00;;;;10334770;28;20228;-76
2021/03/16 10:18:15;;;;;;;7.10;3.53;;;;;7.70;102050.00;;;;10336966;28;20199;-76
2021/03/16 10:23:21;;;;;;;12.20;3.83;;;;;8.40;102043.00;;;;10376315;28;20678;-76
2021/03/16 10:28:39;;;;;;;9.93;4.40;;;;;9.00;102037.00;;;;10329542;28;20539;-76
2021/03/16 10:33:41;;;;;;;7.83;3.20;;;;;8.60;102041.00;;;;10379555;28;20191;-76
2021/03/16 10:38:43;;;;;;;5.40;3.10;;;;;8.00;102034.00;;;;10360376;28;20192;-76
2021/03/16 10:43:44;;;;;;;4.87;2.00;;;;;8.60;102032.00;;;;10360358;28;20204;-76
2021/03/16 10:48:46;;;;;;;4.43;2.00;;;;;8.70;102040.00;;;;10359537;28;20207;-76
2021/03/16 10:53:47;;;;;;;4.97;1.77;;;;;9.00;102026.00;;;;10351015;28;20203;-76
2021/03/16 10:58:49;;;;;;;3.50;2.20;;;;;9.70;102025.00;;;;10324126;28;20194;-76
2021/03/16 11:03:50;;;;;;;3.87;2.30;;;;;10.20;102024.00;;;;10343168;28;20203;-77
2021/03/16 11:08:52;;;;;;;2.47;2.23;;;;;9.60;102022.00;;;;10357707;28;20200;-76
2021/03/16 11:13:54;;;;;;;4.53;2.63;;;;;9.50;102013.00;;;;10325933;28;20291;-76
2021/03/16 11:18:56;;;;;;;4.27;3.37;;;;;8.90;102006.00;;;;10354897;28;20242;-76
2021/03/16 11:23:59;;;;;;;6.47;3.80;;;;;8.20;102014.00;;;;10333915;28;20219;-76
2021/03/16 11:29:02;;;;;;;4.80;3.27;;;;;7.80;102014.00;;;;10356059;28;20188;-76
2021/03/16 11:34:04;;;;;;;4.80;3.13;;;;;7.90;102013.00;;;;10333830;28;20212;-76
2021/03/16 11:39:25;;;;;;;7.50;3.80;;;;;8.70;102000.00;;;;10340644;28;20199;-76
2021/03/16 11:44:45;;;;;;;11.07;3.80;;;;;8.70;101996.00;;;;10328918;28;20210;-76
2021/03/16 11:50:06;;;;;;;4.47;3.33;;;;;8.50;102001.00;;;;10341076;28;20739;-76
2021/03/16 11:55:27;;;;;;;3.63;3.07;;;;;9.10;101990.00;;;;10335288;28;20216;-77
2021/03/16 12:00:47;;;;;;;3.50;2.20;;;;;9.40;101991.00;;;;10363419;28;20208;-76
2021/03/16 12:06:07;;;;;;;4.30;2.40;;;;;9.60;101984.00;;;;10329127;28;20231;-76
2021/03/16 12:11:27;;;;;;;3.17;2.03;;;;;9.20;101981.00;;;;10334681;28;20654;-76
2021/03/16 12:16:47;;;;;;;3.47;2.40;;;;;9.10;101977.00;;;;10329014;28;20223;-76
2021/03/16 12:22:07;;;;;;;4.13;2.10;;;;;9.10;101971.00;;;;10351087;28;20600;-76
2021/03/16 12:27:28;;;;;;;3.10;2.23;;;;;9.00;101973.00;;;;10348594;28;20198;-76
2021/03/16 12:32:50;;;;;;;3.13;2.10;;;;;9.10;101964.00;;;;10355811;28;20203;-76
2021/03/16 12:38:10;;;;;;;3.03;1.33;;;;;9.40;101961.00;;;;10353273;28;20195;-76
2021/03/16 12:43:31;;;;;;;3.10;1.90;;;;;9.70;101962.00;;;;10360505;28;20445;-76
2021/03/16 12:48:51;;;;;;;3.13;1.80;;;;;9.90;101955.00;;;;10337074;28;20204;-76
2021/03/16 12:54:11;;;;;;;16.33;9.97;;;;;9.60;101955.00;;;;10326940;28;20207;-76
2021/03/16 12:59:30;;;;;;;5.70;2.33;;;;;9.10;101944.00;;;;10393380;28;20616;-75
2021/03/16 13:04:50;;;;;;;3.60;1.90;;;;;8.70;101939.00;;;;10394959;28;20199;-75
2021/03/16 13:10:11;;;;;;;8.23;7.47;;;;;8.40;101941.00;;;;10340409;28;20188;-75
2021/03/16 13:15:31;;;;;;;3.97;2.60;;;;;8.20;101933.00;;;;10364258;28;20673;-75
2021/03/16 13:20:52;;;;;;;4.23;2.40;;;;;8.50;101934.00;;;;10344040;28;20204;-75
2021/03/16 13:26:26;;;;;;;4.33;3.07;;;;;8.70;101921.00;;;;10352139;28;20655;-75
2021/03/16 13:31:46;;;;;;;6.73;4.00;;;;;8.90;101918.00;;;;10325100;28;20290;-75
2021/03/16 13:37:07;;;;;;;4.00;3.43;;;;;8.90;101927.00;;;;10349649;28;20199;-75
2021/03/16 13:42:27;;;;;;;5.33;3.73;;;;;9.00;101915.00;;;;10380736;28;20210;-75
2021/03/16 13:47:47;;;;;;;2.87;2.63;;;;;9.30;101914.00;;;;10379549;28;20203;-75
2021/03/16 13:53:07;;;;;;;5.03;3.23;;;;;8.90;101920.00;;;;10367940;28;20665;-75
2021/03/16 13:58:27;;;;;;;4.47;4.07;;;;;8.60;101910.00;;;;10365488;28;20203;-75
2021/03/16 14:03:47;;;;;;;4.20;3.80;;;;;8.40;101910.00;;;;10333133;28;20211;-75
2021/03/16 14:09:09;;;;;;;4.93;3.43;;;;;8.50;101913.00;;;;10342666;28;20273;-75
2021/03/16 14:14:29;;;;;;;5.80;4.33;;;;;8.20;101907.00;;;;10358932;28;20231;-75
2021/03/16 14:19:50;;;;;;;5.73;3.83;;;;;8.60;101895.00;;;;10326196;28;20693;-75
2021/03/16 14:25:12;;;;;;;4.50;3.97;;;;;8.40;101892.00;;;;10307239;28;20188;-76
2021/03/16 14:30:34;;;;;;;4.43;4.03;;;;;8.20;101894.00;;;;10341887;28;20194;-75
2021/03/16 14:35:54;;;;;;;4.67;3.73;;;;;8.20;101894.00;;;;10419723;28;20203;-76
2021/03/16 14:41:14;;;;;;;10.30;7.90;;;;;8.10;101894.00;;;;10419204;28;20219;-76
2021/03/16 14:46:34;;;;;;;10.37;9.20;;;;;7.80;101895.00;;;;10326681;28;20622;-75
2021/03/16 14:51:55;;;;;;;8.13;5.13;;;;;7.60;101901.00;;;;10355285;28;20191;-75
2021/03/16 14:57:14;;;;;;;5.63;4.70;;;;;7.50;101893.00;;;;10289392;28;20203;-76
2021/03/16 15:02:34;;;;;;;6.70;4.73;;;;;7.40;101886.00;;;;10338565;28;20207;-76
2021/03/16 15:07:54;;;;;;;6.60;5.90;;;;;7.50;101890.00;;;;10347341;28;20551;-76
2021/03/16 15:13:14;;;;;;;11.47;7.80;;;;;7.70;101885.00;;;;10363450;28;20226;-76
2021/03/16 15:18:34;;;;;;;7.10;6.03;;;;;8.20;101875.00;;;;10344032;28;20290;-76
2021/03/16 15:23:55;;;;;;;8.43;5.80;;;;;8.10;101881.00;;;;10305827;28;20212;-76
2021/03/16 15:29:14;;;;;;;6.20;5.60;;;;;7.90;101877.00;;;;10318565;28;20192;-75
2021/03/16 15:34:34;;;;;;;6.63;5.93;;;;;7.70;101873.00;;;;10361550;28;20258;-75
2021/03/16 15:40:01;;;;;;;9.13;5.73;;;;;7.70;101862.00;;;;10361048;28;20218;-76
2021/03/16 15:45:21;;;;;;;6.30;5.70;;;;;7.60;101864.00;;;;10351543;28;20193;-77
2021/03/16 15:50:41;;;;;;;6.27;5.57;;;;;7.40;101853.00;;;;10398850;28;20975;-77
2021/03/16 15:56:02;;;;;;;7.50;6.43;;;;;7.40;101849.00;;;;10362765;28;20244;-77
2021/03/16 16:01:23;;;;;;;9.47;7.00;;;;;7.40;101849.00;;;;10335103;28;20234;-76
2021/03/16 16:06:49;;;;;;;10.30;7.53;;;;;7.40;101837.00;;;;10300847;28;20259;-76
2021/03/16 16:12:09;;;;;;;10.03;9.03;;;;;7.20;101840.00;;;;10322662;28;20191;-75
2021/03/16 16:17:29;;;;;;;9.50;8.50;;;;;7.10;101840.00;;;;10361935;28;20198;-76
2021/03/16 16:22:49;;;;;;;10.63;9.43;;;;;7.10;101843.00;;;;10341265;28;20220;-75
2021/03/16 16:28:10;;;;;;;9.73;8.17;;;;;7.10;101842.00;;;;10368420;28;20191;-76
2021/03/16 16:33:30;;;;;;;13.47;10.67;;;;;7.00;101846.00;;;;10358460;28;20872;-76
2021/03/16 16:38:50;;;;;;;10.60;9.47;;;;;6.90;101842.00;;;;10335556;28;20286;-75
2021/03/16 16:44:11;;;;;;;39.43;31.00;;;;;6.80;101837.00;;;;10317879;28;20659;-76
2021/03/16 16:49:32;;;;;;;19.43;15.80;;;;;6.80;101838.00;;;;10366751;28;20274;-76
2021/03/16 16:54:52;;;;;;;15.47;10.83;;;;;6.90;101829.00;;;;10339121;28;20188;-75
2021/03/16 17:00:13;;;;;;;14.57;11.43;;;;;6.90;101832.00;;;;10348703;28;20214;-76
2021/03/16 17:05:34;;;;;;;14.93;12.03;;;;;6.80;101825.00;;;;10345721;28;20199;-75
2021/03/16 17:10:54;;;;;;;15.47;11.33;;;;;6.80;101840.00;;;;10332637;28;20524;-76
2021/03/16 17:16:14;;;;;;;12.20;10.50;;;;;6.60;101837.00;;;;10363531;28;20230;-76
2021/03/16 17:21:34;;;;;;;18.17;11.60;;;;;6.60;101840.00;;;;10347460;28;20208;-76
2021/03/16 17:26:54;;;;;;;18.50;11.30;;;;;6.50;101842.00;;;;10331397;28;20246;-76
2021/03/16 17:32:13;;;;;;;18.00;12.40;;;;;6.40;101841.00;;;;10336550;28;20559;-76
2021/03/16 17:37:36;;;;;;;13.47;11.67;;;;;6.40;101833.00;;;;10371561;28;20183;-76
2021/03/16 17:42:56;;;;;;;18.03;12.97;;;;;6.30;101837.00;;;;10365882;28;20220;-76
2021/03/16 17:48:15;;;;;;;15.00;11.57;;;;;6.30;101835.00;;;;10356238;28;20312;-76
2021/03/16 17:53:36;;;;;;;22.07;16.93;;;;;6.30;101832.00;;;;10350246;28;20457;-75
2021/03/16 17:58:56;;;;;;;25.73;18.13;;;;;6.30;101830.00;;;;10344054;28;20354;-75
2021/03/16 18:04:16;;;;;;;24.50;20.37;;;;;6.30;101823.00;;;;10339999;28;20208;-76
2021/03/16 18:09:35;;;;;;;19.67;15.20;;;;;6.30;101821.00;;;;10337810;28;20618;-77
2021/03/16 18:14:55;;;;;;;26.30;17.17;;;;;6.20;101807.00;;;;10364281;28;20688;-75
2021/03/16 18:20:16;;;;;;;24.47;18.07;;;;;6.20;101822.00;;;;10347904;28;20241;-75
2021/03/16 18:25:39;;;;;;;27.57;19.10;;;;;6.20;101808.00;;;;10372882;28;20239;-75
2021/03/16 18:30:59;;;;;;;24.10;17.77;;;;;6.20;101803.00;;;;10346695;28;20738;-75
2021/03/16 18:36:20;;;;;;;28.63;18.13;;;;;6.20;101802.00;;;;10340068;28;20277;-75
2021/03/16 18:41:40;;;;;;;26.80;19.17;;;;;6.20;101805.00;;;;10360136;28;20203;-75
2021/03/16 18:47:01;;;;;;;28.07;20.43;;;;;6.20;101806.00;;;;10370024;28;20206;-76
2021/03/16 18:52:30;;;;;;;30.23;20.10;;;;;6.20;101799.00;;;;10343689;28;20243;-77
2021/03/16 18:57:51;;;;;;;34.03;22.30;;;;;6.20;101794.00;;;;10374506;28;20775;-76
2021/03/16 19:03:11;;;;;;;31.20;22.13;;;;;6.20;101792.00;;;;10352070;28;20204;-76
2021/03/16 19:08:31;;;;;;;32.27;21.20;;;;;6.20;101784.00;;;;10351990;28;20224;-76
2021/03/16 19:13:51;;;;;;;31.20;22.27;;;;;6.20;101786.00;;;;10347519;28;20224;-76
2021/03/16 19:19:11;;;;;;;37.63;25.13;;;;;6.20;101785.00;;;;10336992;28;20333;-76
2021/03/16 19:24:31;;;;;;;33.40;22.93;;;;;6.20;101782.00;;;;10341071;28;20220;-76
2021/03/16 19:29:51;;;;;;;35.97;24.70;;;;;6.20;101781.00;;;;10345929;28;20196;-76
2021/03/16 19:35:12;;;;;;;44.70;29.40;;;;;6.20;101782.00;;;;10351010;28;20488;-76
2021/03/16 19:40:32;;;;;;;39.33;26.07;;;;;6.20;101766.00;;;;10347684;28;20213;-76
2021/03/16 19:45:52;;;;;;;45.63;28.33;;;;;6.20;101758.00;;;;10342530;28;20658;-76
2021/03/16 19:51:13;;;;;;;49.27;32.23;;;;;6.20;101760.00;;;;10360127;28;20183;-76
2021/03/16 19:56:33;;;;;;;41.07;26.23;;;;;6.20;101751.00;;;;10350627;28;20195;-76
2021/03/16 20:01:53;;;;;;;42.23;27.43;;;;;6.10;101748.00;;;;10348003;28;20204;-76
2021/03/16 20:07:13;;;;;;;40.03;25.57;;;;;6.00;101746.00;;;;10324545;28;20187;-76
2021/03/16 20:12:33;;;;;;;42.40;25.30;;;;;6.00;101747.00;;;;10342669;28;20304;-76
2021/03/16 20:17:53;;;;;;;39.90;24.60;;;;;6.00;101742.00;;;;10349239;28;20693;-76
2021/03/16 20:23:13;;;;;;;46.80;27.13;;;;;6.00;101742.00;;;;10340659;28;20224;-76
2021/03/16 20:28:34;;;;;;;51.97;30.53;;;;;6.10;101743.00;;;;10346065;28;20199;-76
2021/03/16 20:33:54;;;;;;;49.17;29.37;;;;;6.10;101741.00;;;;10321394;28;20199;-76
2021/03/16 20:39:16;;;;;;;49.73;31.87;;;;;6.10;101736.00;;;;10356486;28;20207;-76
2021/03/16 20:44:36;;;;;;;47.53;28.57;;;;;6.10;101735.00;;;;10340095;28;20809;-76
2021/03/16 20:49:56;;;;;;;54.87;30.93;;;;;6.10;101721.00;;;;10351748;28;20196;-76
2021/03/16 20:55:16;;;;;;;53.90;30.93;;;;;6.20;101725.00;;;;10336090;28;20211;-76
2021/03/16 21:00:36;;;;;;;51.50;31.83;;;;;6.20;101726.00;;;;10348394;28;20211;-76
2021/03/16 21:05:57;;;;;;;65.53;35.87;;;;;6.20;101703.00;;;;10337859;28;20503;-76
2021/03/16 21:11:18;;;;;;;59.83;31.53;;;;;6.20;101707.00;;;;10315288;28;20294;-76
2021/03/16 21:16:38;;;;;;;63.30;34.23;;;;;6.20;101694.00;;;;10325596;28;20227;-76
2021/03/16 21:21:58;;;;;;;56.83;32.77;;;;;6.10;101703.00;;;;10351489;28;20204;-76
2021/03/16 21:27:18;;;;;;;65.57;35.43;;;;;6.20;101692.00;;;;10328695;28;20200;-76
2021/03/16 21:32:41;;;;;;;68.40;34.83;;;;;6.20;101698.00;;;;10327413;28;20210;-76
2021/03/16 21:38:02;;;;;;;63.03;33.83;;;;;6.20;101700.00;;;;10355519;28;20200;-76
2021/03/16 21:43:22;;;;;;;67.03;34.90;;;;;6.10;101699.00;;;;10328697;28;20211;-76
2021/03/16 21:48:42;;;;;;;69.43;34.77;;;;;6.10;101695.00;;;;10326638;28;20200;-76
2021/03/16 21:54:02;;;;;;;68.60;33.97;;;;;6.20;101692.00;;;;10373201;28;20197;-76
2021/03/16 21:59:24;;;;;;;68.30;33.37;;;;;6.20;101689.00;;;;10326802;28;20663;-76
2021/03/16 22:04:43;;;;;;;56.27;29.43;;;;;6.20;101692.00;;;;10355068;28;20218;-76
2021/03/16 22:10:13;;;;;;;46.43;27.80;;;;;6.20;101692.00;;;;10339275;28;20543;-76
2021/03/16 22:15:33;;;;;;;29.03;18.10;;;;;6.20;101696.00;;;;10355720;28;20231;-76
2021/03/16 22:20:54;;;;;;;22.33;14.77;;;;;6.30;101698.00;;;;10349382;28;20235;-76
2021/03/16 22:26:14;;;;;;;45.90;28.40;;;;;6.30;101709.00;;;;10362324;28;20554;-76
2021/03/16 22:31:34;;;;;;;53.37;30.23;;;;;6.30;101718.00;;;;10360249;28;20194;-76
2021/03/16 22:36:58;;;;;;;45.63;26.97;;;;;6.20;101718.00;;;;10360779;28;20206;-76
2021/03/16 22:42:18;;;;;;;48.70;27.17;;;;;6.10;101732.00;;;;10375964;28;20219;-76
2021/03/16 22:47:38;;;;;;;43.30;25.17;;;;;5.90;101725.00;;;;10361160;28;20201;-76
2021/03/16 22:52:58;;;;;;;34.23;21.27;;;;;5.80;101742.00;;;;10339145;28;20201;-76
2021/03/16 22:58:19;;;;;;;36.40;21.67;;;;;5.70;101748.00;;;;10376462;28;20204;-76
2021/03/16 23:03:38;;;;;;;38.40;24.60;;;;;5.50;101754.00;;;;10334823;28;20203;-76
2021/03/16 23:08:58;;;;;;;39.57;24.27;;;;;5.40;101762.00;;;;10358029;28;20199;-76
2021/03/16 23:14:18;;;;;;;39.33;23.73;;;;;5.40;101781.00;;;;10344418;28;20234;-76
2021/03/16 23:19:39;;;;;;;46.13;26.87;;;;;5.40;101780.00;;;;10356624;28;20597;-76
2021/03/16 23:24:59;;;;;;;42.43;24.37;;;;;5.30;101794.00;;;;10375665;28;20199;-76
2021/03/16 23:30:20;;;;;;;33.67;20.87;;;;;5.20;101800.00;;;;10349848;28;20952;-76
2021/03/16 23:35:40;;;;;;;31.87;19.47;;;;;5.10;101818.00;;;;10338740;28;20203;-76
2021/03/16 23:41:01;;;;;;;35.57;21.27;;;;;5.00;101823.00;;;;10322625;28;20219;-76
2021/03/16 23:46:31;;;;;;;34.70;19.47;;;;;4.90;101832.00;;;;10360908;28;20761;-76
2021/03/16 23:51:51;;;;;;;32.83;20.57;;;;;4.90;101848.00;;;;10330626;28;20218;-76
2021/03/16 23:57:11;;;;;;;34.27;20.43;;;;;4.80;101851.00;;;;10359352;28;20187;-76
